createdAt,value
2022-11-20T10:05:34.544Z,19.70
2022-11-20T10:06:34.762Z,18.50
2022-11-20T10:07:34.458Z,19.60
2022-11-20T10:08:34.367Z,19.70
2022-11-20T10:09:34.290Z,17.30
2022-11-20T10:10:34.492Z,18.30
2022-11-20T10:11:34.335Z,16.30
2022-11-20T10:12:34.324Z,16.60
2022-11-20T10:13:34.292Z,16.70
2022-11-20T10:14:34.286Z,16.80
2022-11-20T10:15:34.334Z,16.00
2022-11-20T10:16:39.485Z,16.90
2022-11-20T10:17:35.250Z,16.10
2022-11-20T10:18:34.169Z,18.30
2022-11-20T10:19:34.216Z,17.00
2022-11-20T10:20:34.207Z,16.40
2022-11-20T10:21:34.173Z,16.50
2022-11-20T10:22:34.228Z,14.70
2022-11-20T10:23:34.176Z,15.60
2022-11-20T10:24:34.112Z,14.10
2022-11-20T10:25:34.157Z,13.60
2022-11-20T10:26:34.106Z,15.00
2022-11-20T10:27:34.109Z,14.40
2022-11-20T10:28:34.047Z,13.70
2022-11-20T10:29:34.099Z,13.00
2022-11-20T10:30:34.014Z,13.80
2022-11-20T10:31:34.037Z,14.00
2022-11-20T10:32:34.050Z,14.10
2022-11-20T10:33:50.150Z,13.40
2022-11-20T10:34:35.010Z,14.00
2022-11-20T10:35:33.976Z,14.30
2022-11-20T10:36:33.941Z,13.60
2022-11-20T10:37:33.966Z,12.80
2022-11-20T10:38:33.925Z,12.20
2022-11-20T10:39:33.969Z,13.60
2022-11-20T10:40:33.959Z,14.10
2022-11-20T10:41:35.855Z,13.40
2022-11-20T10:42:33.911Z,13.40
2022-11-20T10:43:33.933Z,15.70
2022-11-20T10:44:33.885Z,13.00
2022-11-20T10:45:33.852Z,13.60
2022-11-20T10:46:33.808Z,15.10
2022-11-20T10:47:33.820Z,14.90
2022-11-20T10:48:33.886Z,13.30
2022-11-20T10:49:33.742Z,13.50
2022-11-20T10:50:33.761Z,15.10
2022-11-20T10:51:33.719Z,14.60
2022-11-20T10:52:33.707Z,15.70
2022-11-20T10:53:33.698Z,15.60
2022-11-20T10:54:33.692Z,15.20
2022-11-20T10:55:33.693Z,16.10
2022-11-20T10:56:33.641Z,15.80
2022-11-20T10:57:33.662Z,14.50
2022-11-20T10:58:33.622Z,14.20
2022-11-20T10:59:33.608Z,14.90
2022-11-20T11:00:33.594Z,14.50
2022-11-20T11:01:33.655Z,13.50
2022-11-20T11:02:33.594Z,14.90
2022-11-20T11:03:33.549Z,14.70
2022-11-20T11:04:33.554Z,16.40
2022-11-20T11:05:33.529Z,14.90
2022-11-20T11:06:33.511Z,14.50
2022-11-20T11:07:33.545Z,13.00
2022-11-20T11:08:33.507Z,15.80
2022-11-20T11:09:33.494Z,14.80
2022-11-20T11:10:33.477Z,13.60
2022-11-20T11:11:33.461Z,15.40
2022-11-20T11:12:33.455Z,15.00
2022-11-20T11:13:33.413Z,13.90
2022-11-20T11:14:33.413Z,15.20
2022-11-20T11:15:33.384Z,13.90
2022-11-20T11:16:33.392Z,14.60
2022-11-20T11:17:35.563Z,12.10
2022-11-20T11:18:34.516Z,14.20
2022-11-20T11:19:33.355Z,13.70
2022-11-20T11:20:33.355Z,13.60
2022-11-20T11:21:33.320Z,12.30
2022-11-20T11:22:33.306Z,13.60
2022-11-20T11:23:33.287Z,13.60
2022-11-20T11:24:42.652Z,13.60
2022-11-20T11:25:34.274Z,14.40
2022-11-20T11:26:33.272Z,13.00
2022-11-20T11:27:33.258Z,13.50
2022-11-20T11:28:33.257Z,13.50
2022-11-20T11:29:33.237Z,15.60
2022-11-20T11:30:33.207Z,13.60
2022-11-20T11:31:33.194Z,15.20
2022-11-20T11:32:33.208Z,14.50
2022-11-20T11:33:33.163Z,15.10
2022-11-20T11:34:33.156Z,13.80
2022-11-20T11:35:33.151Z,14.40
2022-11-20T11:36:33.131Z,14.60
2022-11-20T11:37:33.117Z,16.30
2022-11-20T11:38:33.104Z,15.00
2022-11-20T11:39:33.091Z,15.30
2022-11-20T11:40:33.101Z,16.30
2022-11-20T11:41:33.060Z,15.80
2022-11-20T11:42:33.065Z,15.80
2022-11-20T11:43:36.776Z,14.00
2022-11-20T11:44:33.047Z,15.70
2022-11-20T11:45:33.002Z,16.20
2022-11-20T11:46:33.015Z,16.90
2022-11-20T11:47:32.982Z,15.70
2022-11-20T11:48:32.977Z,14.10
2022-11-20T11:49:32.950Z,14.10
2022-11-20T11:50:33.085Z,14.00
2022-11-20T11:51:32.930Z,15.20
2022-11-20T11:52:33.204Z,14.30
2022-11-20T11:53:32.925Z,14.10
2022-11-20T11:54:32.921Z,15.40
2022-11-20T11:55:32.865Z,14.60
2022-11-20T11:56:32.904Z,15.20
2022-11-20T11:57:32.866Z,13.20
2022-11-20T11:58:32.838Z,15.00
2022-11-20T11:59:32.858Z,14.90
2022-11-20T12:00:32.824Z,14.10
2022-11-20T12:01:33.471Z,13.90
2022-11-20T12:02:32.823Z,15.50
2022-11-20T12:03:32.766Z,14.00
2022-11-20T12:04:32.783Z,13.80
2022-11-20T12:05:32.762Z,15.20
2022-11-20T12:06:32.904Z,14.30
2022-11-20T12:07:46.217Z,12.90
2022-11-20T12:08:33.759Z,13.50
2022-11-20T12:09:33.115Z,15.10
2022-11-20T12:10:33.697Z,14.70
2022-11-20T12:11:32.773Z,13.10
2022-11-20T12:12:32.695Z,13.20
2022-11-20T12:13:32.649Z,12.70
2022-11-20T12:14:32.635Z,13.70
2022-11-20T12:15:32.651Z,13.20
2022-11-20T12:16:32.670Z,14.30
2022-11-20T12:17:32.589Z,15.30
2022-11-20T12:18:32.608Z,12.50
2022-11-20T12:19:32.600Z,15.10
2022-11-20T12:20:32.570Z,14.50
2022-11-20T12:21:32.773Z,15.10
2022-11-20T12:22:32.534Z,13.30
2022-11-20T12:23:32.533Z,14.50
2022-11-20T12:24:32.520Z,15.10
2022-11-20T12:25:32.486Z,13.70
2022-11-20T12:26:32.489Z,14.50
2022-11-20T12:27:32.467Z,12.70
2022-11-20T12:28:32.465Z,14.40
2022-11-20T12:29:32.431Z,14.20
2022-11-20T12:30:32.428Z,15.00
2022-11-20T12:31:32.420Z,15.90
2022-11-20T12:32:32.416Z,14.90
2022-11-20T12:33:32.411Z,12.90
2022-11-20T12:34:32.411Z,15.00
2022-11-20T12:35:32.473Z,13.40
2022-11-20T12:36:32.377Z,16.10
2022-11-20T12:37:32.337Z,14.50
2022-11-20T12:38:32.343Z,14.20
2022-11-20T12:39:32.341Z,14.30
2022-11-20T12:40:32.311Z,15.40
2022-11-20T12:41:32.293Z,13.80
2022-11-20T12:42:32.283Z,14.30
2022-11-20T12:43:32.268Z,14.20
2022-11-20T12:44:32.246Z,13.20
2022-11-20T12:45:32.248Z,15.10
2022-11-20T12:46:32.234Z,16.90
2022-11-20T12:47:32.215Z,15.10
2022-11-20T12:48:32.198Z,13.30
2022-11-20T12:49:32.194Z,15.40
2022-11-20T12:50:32.548Z,14.10
2022-11-20T12:51:32.181Z,15.30
2022-11-20T12:52:32.160Z,15.00
2022-11-20T12:53:32.135Z,16.30
2022-11-20T12:54:32.121Z,15.30
2022-11-20T12:55:32.176Z,15.80
2022-11-20T12:56:32.176Z,15.80
2022-11-20T12:57:32.082Z,13.80
2022-11-20T12:58:32.066Z,15.40
2022-11-20T12:59:32.057Z,16.30
2022-11-20T13:00:32.050Z,14.60
2022-11-20T13:01:32.158Z,16.70
2022-11-20T13:02:32.056Z,15.50
2022-11-20T13:03:32.006Z,14.90
2022-11-20T13:04:31.989Z,16.00
2022-11-20T13:05:32.197Z,15.40
2022-11-20T13:06:31.984Z,17.50
2022-11-20T13:07:32.016Z,13.80
2022-11-20T13:08:31.948Z,14.10
2022-11-20T13:09:31.928Z,16.10
2022-11-20T13:10:31.907Z,15.60
2022-11-20T13:11:31.892Z,16.00
2022-11-20T13:12:31.908Z,15.50
2022-11-20T13:13:31.896Z,15.80
2022-11-20T13:14:31.881Z,16.70
2022-11-20T13:15:31.836Z,16.50
2022-11-20T13:16:31.842Z,14.00
2022-11-20T13:17:31.819Z,17.20
2022-11-20T13:18:31.845Z,15.20
2022-11-20T13:19:31.842Z,14.40
2022-11-20T13:20:31.778Z,13.80
2022-11-20T13:21:31.791Z,17.20
2022-11-20T13:22:31.764Z,14.40
2022-11-20T13:23:31.777Z,15.60
2022-11-20T13:24:31.755Z,14.20
2022-11-20T13:25:31.706Z,15.70
2022-11-20T13:26:31.715Z,15.90
2022-11-20T13:27:31.696Z,16.80
2022-11-20T13:28:31.672Z,14.20
2022-11-20T13:29:31.679Z,15.80
2022-11-20T13:30:31.681Z,15.80
2022-11-20T13:31:31.691Z,16.60
2022-11-20T13:32:31.645Z,18.90
2022-11-20T13:33:31.626Z,17.70
2022-11-20T13:34:31.640Z,17.30
2022-11-20T13:35:31.583Z,15.50
2022-11-20T13:36:31.577Z,16.30
2022-11-20T13:37:31.556Z,15.90
2022-11-20T13:38:33.998Z,16.50
2022-11-20T13:39:31.532Z,15.80
2022-11-20T13:40:31.554Z,15.30
2022-11-20T13:41:31.598Z,16.90
2022-11-20T13:42:31.496Z,17.10
2022-11-20T13:43:31.493Z,15.60
2022-11-20T13:44:31.491Z,17.00
2022-11-20T13:45:31.448Z,18.10
2022-11-20T13:46:31.494Z,16.40
2022-11-20T13:47:31.432Z,17.30
2022-11-20T13:48:31.427Z,17.90
2022-11-20T13:49:31.421Z,17.80
2022-11-20T13:50:31.420Z,16.50
2022-11-20T13:51:31.370Z,18.30
2022-11-20T13:52:31.404Z,17.00
2022-11-20T13:53:31.352Z,15.80
2022-11-20T13:54:31.342Z,17.40
2022-11-20T13:55:31.314Z,16.90
2022-11-20T13:56:31.346Z,17.60
2022-11-20T13:57:31.361Z,17.00
2022-11-20T13:58:31.284Z,16.10
2022-11-20T13:59:31.279Z,17.30
2022-11-20T14:00:31.281Z,18.30
2022-11-20T14:01:31.338Z,17.80
2022-11-20T14:02:31.235Z,18.40
2022-11-20T14:04:04.420Z,17.30
2022-11-20T14:04:32.205Z,19.10
2022-11-20T14:05:31.185Z,18.00
2022-11-20T14:06:31.181Z,19.00
2022-11-20T14:07:31.212Z,17.30
2022-11-20T14:08:31.164Z,18.40
2022-11-20T14:09:31.359Z,18.20
2022-11-20T14:10:32.460Z,17.70
2022-11-20T14:11:31.118Z,20.00
2022-11-20T14:12:31.132Z,19.00
2022-11-20T14:13:31.113Z,18.80
2022-11-20T14:14:31.079Z,19.90
2022-11-20T14:15:31.071Z,19.90
2022-11-20T14:16:31.060Z,19.30
2022-11-20T14:17:31.039Z,17.10
2022-11-20T14:18:31.038Z,19.00
2022-11-20T14:19:31.025Z,18.20
2022-11-20T14:20:31.030Z,19.40
2022-11-20T14:21:31.007Z,20.50
2022-11-20T14:22:31.007Z,22.00
2022-11-20T14:23:30.952Z,19.20
2022-11-20T14:24:30.957Z,20.60
2022-11-20T14:25:30.960Z,21.00
2022-11-20T14:26:30.926Z,21.50
2022-11-20T14:27:30.928Z,19.50
2022-11-20T14:28:30.901Z,19.30
2022-11-20T14:29:30.912Z,19.80
2022-11-20T14:30:30.868Z,22.20
2022-11-20T14:31:30.856Z,21.90
2022-11-20T14:32:30.854Z,20.40
2022-11-20T14:33:30.837Z,19.60
2022-11-20T14:34:30.820Z,22.20
2022-11-20T14:35:30.825Z,21.60
2022-11-20T14:36:30.782Z,21.50
2022-11-20T14:37:30.813Z,21.80
2022-11-20T14:38:30.773Z,21.60
2022-11-20T14:39:31.452Z,20.20
2022-11-20T14:40:30.806Z,22.50
2022-11-20T14:41:30.717Z,22.80
2022-11-20T14:42:30.756Z,21.50
2022-11-20T14:43:30.720Z,22.40
2022-11-20T14:44:30.746Z,19.30
2022-11-20T14:45:31.413Z,21.20
2022-11-20T14:46:30.665Z,22.70
2022-11-20T14:47:30.719Z,22.00
2022-11-20T14:48:30.634Z,20.80
2022-11-20T14:49:30.706Z,22.00
2022-11-20T14:50:30.640Z,22.20
2022-11-20T14:51:30.603Z,22.40
2022-11-20T14:52:30.613Z,24.60
2022-11-20T14:53:30.697Z,24.40
2022-11-20T14:54:30.651Z,21.40
2022-11-20T14:55:30.528Z,21.40
2022-11-20T14:56:30.559Z,23.50
2022-11-20T14:57:30.526Z,23.00
2022-11-20T14:58:30.529Z,21.20
2022-11-20T14:59:30.512Z,21.40
2022-11-20T15:00:30.489Z,22.10
2022-11-20T15:01:30.483Z,20.70
2022-11-20T15:02:30.483Z,22.20
2022-11-20T15:03:31.932Z,23.60
2022-11-20T15:04:30.459Z,23.90
2022-11-20T15:05:30.405Z,23.50
2022-11-20T15:06:30.438Z,22.20
2022-11-20T15:07:30.449Z,22.10
2022-11-20T15:08:30.374Z,25.20
2022-11-20T15:09:30.381Z,23.60
2022-11-20T15:10:30.347Z,23.60
2022-11-20T15:11:30.342Z,20.80
2022-11-20T15:12:30.436Z,24.40
2022-11-20T15:13:30.318Z,26.60
2022-11-20T15:14:30.279Z,22.50
2022-11-20T15:15:30.302Z,23.50
2022-11-20T15:16:30.265Z,22.40
2022-11-20T15:17:30.277Z,21.10
2022-11-20T15:18:30.383Z,22.40
2022-11-20T15:19:30.227Z,24.80
2022-11-20T15:20:30.234Z,20.90
2022-11-20T15:21:30.201Z,21.00
2022-11-20T15:22:30.176Z,21.60
2022-11-20T15:23:30.231Z,23.90
2022-11-20T15:24:30.179Z,21.80
2022-11-20T15:25:30.130Z,21.20
2022-11-20T15:26:30.125Z,21.20
2022-11-20T15:27:30.120Z,26.00
2022-11-20T15:28:30.157Z,25.60
2022-11-20T15:29:30.096Z,23.70
2022-11-20T15:30:30.181Z,24.80
2022-11-20T15:31:30.290Z,23.90
2022-11-20T15:32:30.032Z,22.10
2022-11-20T15:33:30.072Z,25.20
2022-11-20T15:34:30.028Z,23.30
2022-11-20T15:35:30.051Z,21.40
2022-11-20T15:36:30.017Z,22.80
2022-11-20T15:37:30.228Z,23.70
2022-11-20T15:38:30.013Z,20.50
2022-11-20T15:39:30.042Z,22.80
2022-11-20T15:40:29.952Z,21.80
2022-11-20T15:41:29.949Z,20.30
2022-11-20T15:42:29.920Z,21.90
2022-11-20T15:43:29.907Z,21.80
2022-11-20T15:44:29.874Z,21.40
2022-11-20T15:45:29.898Z,22.70
2022-11-20T15:46:29.892Z,24.60
2022-11-20T15:47:29.866Z,23.10
2022-11-20T15:48:29.863Z,24.20
2022-11-20T15:49:29.820Z,22.30
2022-11-20T15:50:29.807Z,24.90
2022-11-20T15:51:29.834Z,22.20
2022-11-20T15:52:36.332Z,24.50
2022-11-20T15:53:30.795Z,22.60
2022-11-20T15:54:29.765Z,25.40
2022-11-20T15:55:29.816Z,22.20
2022-11-20T15:56:29.779Z,23.40
2022-11-20T15:57:29.706Z,23.50
2022-11-20T15:58:29.700Z,20.80
2022-11-20T15:59:29.771Z,23.20
2022-11-20T16:00:29.674Z,21.50
2022-11-20T16:01:29.729Z,22.00
2022-11-20T16:02:29.697Z,24.00
2022-11-20T16:03:29.703Z,22.80
2022-11-20T16:04:29.624Z,24.70
2022-11-20T16:05:29.637Z,22.30
2022-11-20T16:06:29.635Z,21.50
2022-11-20T16:07:29.658Z,22.60
2022-11-20T16:08:29.705Z,21.40
2022-11-20T16:09:29.615Z,24.20
2022-11-20T16:10:29.541Z,23.90
2022-11-20T16:11:29.557Z,22.30
2022-11-20T16:12:29.637Z,22.50
2022-11-20T16:13:29.528Z,21.80
2022-11-20T16:14:29.523Z,21.80
2022-11-20T16:15:29.542Z,24.30
2022-11-20T16:16:29.502Z,21.40
2022-11-20T16:17:29.453Z,23.30
2022-11-20T16:18:29.458Z,20.70
2022-11-20T16:19:29.467Z,21.80
2022-11-20T16:20:29.448Z,22.70
2022-11-20T16:21:29.447Z,23.60
2022-11-20T16:22:29.400Z,25.40
2022-11-20T16:23:30.088Z,22.70
2022-11-20T16:24:29.392Z,22.30
2022-11-20T16:25:29.373Z,22.00
2022-11-20T16:26:29.371Z,24.10
2022-11-20T16:27:29.344Z,23.80
2022-11-20T16:28:29.329Z,23.80
2022-11-20T16:29:29.313Z,22.70
2022-11-20T16:30:29.328Z,24.10
2022-11-20T16:31:29.283Z,23.20
2022-11-20T16:32:29.283Z,22.10
2022-11-20T16:33:29.275Z,24.60
2022-11-20T16:34:29.643Z,25.00
2022-11-20T16:35:29.228Z,24.50
2022-11-20T16:36:29.213Z,24.80
2022-11-20T16:37:29.205Z,25.30
2022-11-20T16:38:29.205Z,28.90
2022-11-20T16:39:29.180Z,24.40
2022-11-20T16:40:29.154Z,30.00
2022-11-20T16:41:29.183Z,26.60
2022-11-20T16:42:29.229Z,27.00
2022-11-20T16:43:29.140Z,29.80
2022-11-20T16:44:29.138Z,26.30
2022-11-20T16:45:33.615Z,30.20
2022-11-20T16:46:29.120Z,27.60
2022-11-20T16:47:29.080Z,27.10
2022-11-20T16:48:29.079Z,26.40
2022-11-20T16:49:29.078Z,27.60
2022-11-20T16:50:29.082Z,22.70
2022-11-20T16:51:29.021Z,26.10
2022-11-20T16:52:29.001Z,23.60
2022-11-20T16:53:29.017Z,26.20
2022-11-20T16:54:29.133Z,26.00
2022-11-20T16:55:28.966Z,25.50
2022-11-20T16:56:28.980Z,24.30
2022-11-20T16:57:28.932Z,25.50
2022-11-20T16:58:28.962Z,23.90
2022-11-20T16:59:29.053Z,26.40
2022-11-20T17:00:28.944Z,27.90
2022-11-20T17:01:29.043Z,28.20
2022-11-20T17:02:28.903Z,25.70
2022-11-20T17:03:28.907Z,28.50
2022-11-20T17:04:29.899Z,24.70
2022-11-20T17:05:29.063Z,29.10
2022-11-20T17:06:29.013Z,26.00
2022-11-20T17:07:28.844Z,27.10
2022-11-20T17:08:28.842Z,31.90
2022-11-20T17:09:28.877Z,26.80
2022-11-20T17:10:28.781Z,26.50
2022-11-20T17:11:28.752Z,28.50
2022-11-20T17:12:28.763Z,27.60
2022-11-20T17:13:28.806Z,27.50
2022-11-20T17:14:28.746Z,28.10
2022-11-20T17:15:28.732Z,28.10
2022-11-20T17:16:28.693Z,30.20
2022-11-20T17:17:28.710Z,27.70
2022-11-20T17:18:28.752Z,29.50
2022-11-20T17:19:28.716Z,28.30
2022-11-20T17:20:28.707Z,29.40
2022-11-20T17:21:28.797Z,32.40
2022-11-20T17:22:28.834Z,32.40
2022-11-20T17:23:28.736Z,30.90
2022-11-20T17:24:31.829Z,28.40
2022-11-20T17:25:28.649Z,31.40
2022-11-20T17:26:31.794Z,32.80
2022-11-20T17:27:28.708Z,30.20
2022-11-20T17:28:28.687Z,30.90
2022-11-20T17:29:29.019Z,29.30
2022-11-20T17:30:28.616Z,35.50
2022-11-20T17:31:28.546Z,32.10
2022-11-20T17:32:28.556Z,31.00
2022-11-20T17:33:29.228Z,28.20
2022-11-20T17:34:28.593Z,32.00
2022-11-20T17:35:28.562Z,35.60
2022-11-20T17:36:28.604Z,32.60
2022-11-20T17:37:28.623Z,30.40
2022-11-20T17:38:28.555Z,31.40
2022-11-20T17:39:28.526Z,32.80
2022-11-20T17:40:28.375Z,31.00
2022-11-20T17:41:28.451Z,29.50
2022-11-20T17:42:28.542Z,33.00
2022-11-20T17:43:34.358Z,33.20
2022-11-20T17:44:29.370Z,32.00
2022-11-20T17:45:28.429Z,32.50
2022-11-20T17:46:28.325Z,34.30
2022-11-20T17:47:28.356Z,32.10
2022-11-20T17:48:28.514Z,32.10
2022-11-20T17:49:29.257Z,33.10
2022-11-20T17:50:28.615Z,33.90
2022-11-20T17:51:28.295Z,32.50
2022-11-20T17:52:28.380Z,36.50
2022-11-20T17:53:28.363Z,31.90
2022-11-20T17:54:28.293Z,36.60
2022-11-20T17:55:28.233Z,31.70
2022-11-20T17:56:28.349Z,34.20
2022-11-20T17:57:28.458Z,34.20
2022-11-20T17:58:28.266Z,36.30
2022-11-20T17:59:28.251Z,34.20
2022-11-20T18:00:28.376Z,33.40
2022-11-20T18:01:28.192Z,34.00
2022-11-20T18:02:28.156Z,36.80
2022-11-20T18:03:28.244Z,31.80
2022-11-20T18:04:28.154Z,36.20
2022-11-20T18:05:28.218Z,36.40
2022-11-20T18:06:28.082Z,34.30
2022-11-20T18:07:28.250Z,35.10
2022-11-20T18:08:28.143Z,32.30
2022-11-20T18:09:28.094Z,32.30
2022-11-20T18:10:28.139Z,35.80
2022-11-20T18:11:28.267Z,33.30
2022-11-20T18:12:28.002Z,38.10
2022-11-20T18:13:28.024Z,33.70
2022-11-20T18:14:27.963Z,34.10
2022-11-20T18:15:28.068Z,34.20
2022-11-20T18:16:28.144Z,32.00
2022-11-20T18:17:27.928Z,35.00
2022-11-20T18:52:09.649Z,11.10
2022-11-20T18:53:09.629Z,13.80
2022-11-20T18:54:09.632Z,12.60
2022-11-20T18:55:09.613Z,8.60
2022-11-20T18:56:09.641Z,6.60
2022-11-20T18:57:09.539Z,7.00
2022-11-20T18:58:09.580Z,8.70
2022-11-20T18:59:09.578Z,6.90
2022-11-20T19:00:10.144Z,7.00
2022-11-20T19:01:09.623Z,9.70
2022-11-20T19:02:09.879Z,6.80
2022-11-20T19:03:09.615Z,9.10
2022-11-20T19:04:09.582Z,7.90
2022-11-20T19:06:32.792Z,9.40
2022-11-20T19:07:32.539Z,10.40
2022-11-20T19:08:32.494Z,9.80
2022-11-20T19:09:32.453Z,9.80
2022-11-20T19:10:32.418Z,8.60
2022-11-20T19:11:32.477Z,7.50
2022-11-20T19:12:32.406Z,8.50
2022-11-20T19:13:32.395Z,8.40
2022-11-20T19:14:32.437Z,9.20
2022-11-20T19:15:32.367Z,10.90
2022-11-20T19:16:32.420Z,8.90
2022-11-20T19:17:32.354Z,9.00
2022-11-20T19:18:32.342Z,12.20
2022-11-20T19:19:32.309Z,9.50
2022-11-20T19:20:32.325Z,8.30
2022-11-20T19:21:32.336Z,9.10
2022-11-20T19:22:32.443Z,8.70
2022-11-20T19:23:32.265Z,11.70
2022-11-20T19:24:32.319Z,9.40
2022-11-20T19:25:37.721Z,13.90
2022-11-20T19:26:33.244Z,9.50
2022-11-20T19:27:32.223Z,12.10
2022-11-20T19:28:32.168Z,10.70
2022-11-20T19:29:32.192Z,10.40
2022-11-20T19:34:09.200Z,10.80
2022-11-20T19:35:09.197Z,10.30
2022-11-20T19:36:09.294Z,13.10
2022-11-20T19:37:09.088Z,11.10
2022-11-20T19:38:09.037Z,13.00
2022-11-20T19:39:09.053Z,12.70
2022-11-20T19:41:29.808Z,17.60
2022-11-20T19:42:29.509Z,20.50
2022-11-20T19:43:29.535Z,19.10
2022-11-20T19:44:29.630Z,14.10
2022-11-20T19:45:29.938Z,17.30
2022-11-20T19:46:29.459Z,17.50
2022-11-20T19:47:52.640Z,18.30
2022-11-20T19:48:30.444Z,23.50
2022-11-20T19:49:29.546Z,20.00
2022-11-20T19:50:29.408Z,16.90
2022-11-20T19:51:29.457Z,12.20
2022-11-20T19:52:29.414Z,14.00
2022-11-20T19:53:29.395Z,14.20
2022-11-20T19:54:29.351Z,14.60
2022-11-20T19:55:29.326Z,15.50
2022-11-20T19:56:29.314Z,14.00
2022-11-20T19:57:29.368Z,15.20
2022-11-20T19:58:29.298Z,13.40
2022-11-20T19:59:29.294Z,16.10
2022-11-20T20:00:32.570Z,16.80
2022-11-20T20:01:29.287Z,16.90
2022-11-20T20:02:29.280Z,17.10
2022-11-20T20:03:29.236Z,16.90
2022-11-20T20:04:29.328Z,15.80
2022-11-20T20:05:29.293Z,18.00
2022-11-20T20:06:29.165Z,17.30
2022-11-20T20:07:29.204Z,16.70
2022-11-20T20:08:29.169Z,18.90
2022-11-20T20:09:29.148Z,17.20
2022-11-20T20:10:29.185Z,21.20
2022-11-20T20:11:29.113Z,27.10
2022-11-20T20:12:29.127Z,30.20
2022-11-20T20:13:29.116Z,26.90
2022-11-20T20:14:29.064Z,27.90
2022-11-20T20:15:29.053Z,30.50
2022-11-20T20:16:29.159Z,28.50
2022-11-20T20:17:29.038Z,26.30
2022-11-20T20:18:29.027Z,27.30
2022-11-20T20:19:29.014Z,27.20
2022-11-20T20:20:29.004Z,27.60
2022-11-20T20:21:28.987Z,26.80
2022-11-20T20:22:29.245Z,27.70
2022-11-20T20:23:29.031Z,29.00
2022-11-20T20:24:28.958Z,25.70
2022-11-20T20:25:29.016Z,26.80
2022-11-20T20:26:28.923Z,25.40
2022-11-20T20:27:29.027Z,24.80
2022-11-20T20:28:28.989Z,22.70
2022-11-20T20:29:28.901Z,25.50
2022-11-20T20:30:28.862Z,23.50
2022-11-20T20:31:28.905Z,24.10
2022-11-20T20:32:28.870Z,25.20
2022-11-20T20:33:28.839Z,25.90
2022-11-20T20:34:28.827Z,26.20
2022-11-20T20:35:28.837Z,28.40
2022-11-20T20:36:28.830Z,27.80
2022-11-20T20:37:28.840Z,28.00
2022-11-20T20:38:28.869Z,28.60
2022-11-20T20:39:28.830Z,25.80
2022-11-20T20:40:28.754Z,25.00
2022-11-20T20:41:28.802Z,28.90
2022-11-20T20:42:28.741Z,28.80
2022-11-20T20:43:28.725Z,27.20
2022-11-20T20:44:28.757Z,28.10
2022-11-20T20:45:28.713Z,26.10
2022-11-20T20:46:28.696Z,25.70
2022-11-20T20:47:28.687Z,26.10
2022-11-20T20:48:28.681Z,25.20
2022-11-20T20:49:28.633Z,24.50
2022-11-20T20:50:29.320Z,28.40
2022-11-20T20:51:28.658Z,29.30
2022-11-20T20:52:28.604Z,28.00
2022-11-20T20:53:28.618Z,27.70
2022-11-20T20:54:34.089Z,29.40
2022-11-20T20:55:29.586Z,26.50
2022-11-20T20:56:28.561Z,26.70
2022-11-20T20:57:28.588Z,23.90
2022-11-20T20:58:28.517Z,28.40
2022-11-20T20:59:28.508Z,26.90
2022-11-20T21:00:28.580Z,25.50
2022-11-20T21:01:28.723Z,24.80
2022-11-20T21:02:28.514Z,21.90
2022-11-20T21:03:32.867Z,26.10
2022-11-20T21:04:28.450Z,24.40
2022-11-20T21:05:28.466Z,23.50
2022-11-20T21:06:28.425Z,26.50
2022-11-20T21:07:28.440Z,22.90
2022-11-20T21:08:28.406Z,24.60
2022-11-20T21:09:28.391Z,25.80
2022-11-20T21:10:28.379Z,24.10
2022-11-20T21:11:28.380Z,26.10
2022-11-20T21:12:28.353Z,28.00
2022-11-20T21:13:28.360Z,23.20
2022-11-20T21:14:28.344Z,24.70
2022-11-20T21:15:28.318Z,26.30
2022-11-20T21:16:28.304Z,28.60
2022-11-20T21:17:28.294Z,29.70
2022-11-20T21:18:28.267Z,29.20
2022-11-20T21:19:28.296Z,27.20
2022-11-20T21:20:28.267Z,29.10
2022-11-20T21:21:28.235Z,28.00
2022-11-20T21:22:31.493Z,30.70
2022-11-20T21:23:29.220Z,34.30
2022-11-20T21:24:28.191Z,35.00
2022-11-20T21:25:28.267Z,31.80
2022-11-20T21:26:28.174Z,30.40
2022-11-20T21:27:28.244Z,34.20
2022-11-20T21:28:28.199Z,37.60
2022-11-20T21:29:28.231Z,36.00
2022-11-20T21:30:28.215Z,36.90
2022-11-20T21:31:28.188Z,37.80
2022-11-20T21:32:28.135Z,34.20
2022-11-20T21:33:28.077Z,40.30
2022-11-20T21:34:28.175Z,36.60
2022-11-20T21:35:28.094Z,35.90
2022-11-20T21:36:28.179Z,39.80
2022-11-20T21:37:28.103Z,35.50
2022-11-20T21:38:28.028Z,39.40
2022-11-20T21:39:28.117Z,38.50
2022-11-20T21:40:28.795Z,37.80
2022-11-20T21:41:28.056Z,37.10
2022-11-20T21:42:28.069Z,36.80
2022-11-20T21:43:28.149Z,39.70
2022-11-20T21:44:31.960Z,33.90
2022-11-20T21:45:28.007Z,36.90
2022-11-20T21:46:27.917Z,32.70
2022-11-20T21:47:28.041Z,35.00
2022-11-20T21:48:28.037Z,30.70
2022-11-20T21:49:27.951Z,32.80
2022-11-20T21:50:27.900Z,34.40
2022-11-20T21:51:27.915Z,34.60
2022-11-20T21:52:27.920Z,34.90
2022-11-20T21:53:27.861Z,31.50
2022-11-20T21:54:27.847Z,32.50
2022-11-20T21:55:27.865Z,31.50
2022-11-20T21:56:27.816Z,31.00
2022-11-20T21:57:27.883Z,34.70
2022-11-20T21:58:27.798Z,31.90
2022-11-20T21:59:27.773Z,32.50
2022-11-20T22:00:27.756Z,32.20
2022-11-20T22:01:27.801Z,32.10
2022-11-20T22:02:27.726Z,38.70
2022-11-20T22:03:27.742Z,34.30
2022-11-20T22:04:27.704Z,32.50
2022-11-20T22:05:27.697Z,30.80
2022-11-20T22:06:27.687Z,32.30
2022-11-20T22:07:27.731Z,28.80
2022-11-20T22:08:27.661Z,32.10
2022-11-20T22:09:27.654Z,31.40
2022-11-20T22:10:27.632Z,31.70
2022-11-20T22:11:27.613Z,35.50
2022-11-20T22:12:27.727Z,34.60
2022-11-20T22:13:27.561Z,33.10
2022-11-20T22:14:27.930Z,34.10
2022-11-20T22:15:53.612Z,32.70
2022-11-20T22:16:28.551Z,32.50
2022-11-20T22:17:27.539Z,33.40
2022-11-20T22:18:27.534Z,36.40
2022-11-20T22:19:27.555Z,36.20
2022-11-20T22:20:27.480Z,34.50
2022-11-20T22:21:27.471Z,34.80
2022-11-20T22:22:27.473Z,35.20
2022-11-20T22:23:27.540Z,35.00
2022-11-20T22:24:27.695Z,31.90
2022-11-20T22:25:27.435Z,35.70
2022-11-20T22:26:27.408Z,34.90
2022-11-20T22:27:27.419Z,34.40
2022-11-20T22:28:27.394Z,29.10
2022-11-20T22:29:27.452Z,30.60
2022-11-20T22:30:27.390Z,31.20
2022-11-20T22:31:27.385Z,33.00
2022-11-20T22:32:27.355Z,29.90
2022-11-20T22:33:27.334Z,28.50
2022-11-20T22:34:27.457Z,31.50
2022-11-20T22:35:27.350Z,31.00
2022-11-20T22:36:27.284Z,29.00
2022-11-20T22:37:27.255Z,34.80
2022-11-20T22:38:29.641Z,34.60
2022-11-20T22:39:27.289Z,32.50
2022-11-20T22:40:27.246Z,35.80
2022-11-20T22:41:27.321Z,32.40
2022-11-20T22:42:27.245Z,32.60
2022-11-20T22:43:27.260Z,32.60
2022-11-20T22:44:27.152Z,32.00
2022-11-20T22:45:27.180Z,33.00
2022-11-20T22:46:27.168Z,31.20
2022-11-20T22:47:27.154Z,33.10
2022-11-20T22:48:27.160Z,32.00
2022-11-20T22:49:27.128Z,29.20
2022-11-20T22:50:27.150Z,32.80
2022-11-20T22:51:27.139Z,31.40
2022-11-20T22:52:27.082Z,27.90
2022-11-20T22:53:27.052Z,28.10
2022-11-20T22:54:27.082Z,29.80
2022-11-20T22:55:27.139Z,32.10
2022-11-20T22:56:27.001Z,27.20
2022-11-20T22:57:27.027Z,29.40
2022-11-20T22:58:26.993Z,31.40
2022-11-20T22:59:34.343Z,42.30
2022-11-20T23:00:34.328Z,36.60
2022-11-20T23:01:34.315Z,43.30
2022-11-20T23:02:34.339Z,29.80
2022-11-20T23:03:34.419Z,31.10
2022-11-20T23:04:34.281Z,31.50
2022-11-20T23:05:34.270Z,33.70
2022-11-20T23:06:34.463Z,32.30
2022-11-20T23:07:39.714Z,30.80
2022-11-20T23:08:35.281Z,30.30
2022-11-20T23:09:34.213Z,31.90
2022-11-20T23:10:34.229Z,37.60
2022-11-20T23:11:34.195Z,33.80
2022-11-20T23:12:34.170Z,35.30
2022-11-20T23:13:34.196Z,34.60
2022-11-20T23:14:34.185Z,34.70
2022-11-20T23:15:34.224Z,29.30
2022-11-20T23:16:34.158Z,33.30
2022-11-20T23:17:34.100Z,35.40
2022-11-20T23:18:34.123Z,29.90
2022-11-20T23:19:34.085Z,34.60
2022-11-20T23:20:34.093Z,32.80
2022-11-20T23:21:34.092Z,38.40
2022-11-20T23:22:42.543Z,34.60
2022-11-20T23:23:34.044Z,30.10
2022-11-20T23:24:46.219Z,31.20
2022-11-20T23:25:44.304Z,34.90
2022-11-20T23:26:41.567Z,37.70
2022-11-20T23:27:34.063Z,36.50
2022-11-20T23:28:34.023Z,31.00
2022-11-20T23:29:34.033Z,34.30
2022-11-20T23:30:34.064Z,32.70
2022-11-20T23:31:33.999Z,33.60
2022-11-20T23:32:34.005Z,36.30
2022-11-20T23:33:33.926Z,35.50
2022-11-20T23:34:33.969Z,34.50
2022-11-20T23:35:33.923Z,31.60
2022-11-20T23:36:33.880Z,31.90
2022-11-20T23:37:33.883Z,32.40
2022-11-20T23:38:33.872Z,33.40